Minneota, Minnesota
Current Conditions -  °F | °C
As of 10:35 PM on Saturday 22 Nov 2014 (Local Time) from KMML Reporting Station
Broken Clouds Broken Clouds  
Wind Chill: 35°   Ceiling: 11000
Heat Index: 43°   Visibility: 10mi
Dew Point: 36°   Wind: 17mph
Humidity: 76%   Direction: 220°SW
Pressure: 29.42"   Gusts: 26mph
Location:  44.56°N, 95.99°W
Report Text: KMML 230435Z AUTO 22015G23KT 10SM BKN110 06/02 A2942 RMK AO1
Loading
Personal Weather Stations






























Interactive Weather Map New forecast layout! Learn more

10-Day Weather Forecast

Advertisements
Track Severe Weather on mobile